Beaumont, California
Current Conditions -  °F | °C
As of 6:58 AM on Monday 22 Dec 2014 (Local Time) from KRIV Reporting Station
Clear Clear  
Wind Chill: 40°   Ceiling: Unl
Heat Index: 40°   Visibility: 10mi
Dew Point: 40°   Wind: 2mph
Humidity: 100%   Direction: 100°E
Pressure: 30.06"   Gusts: NA
Location:  33.93°N, 116.97°W
Report Text: KRIV 221458Z 10002KT 10SM CLR 05/05 A3006 RMK AO2A SLP181 T00450045 53003
Loading
Personal Weather Stations






























Interactive Weather Map New forecast layout! Learn more

10-Day Weather Forecast

Advertisements
Track Severe Weather on mobile